createdAt,value
2022-12-23T00:00:12.410Z,9.52
2022-12-23T00:05:06.344Z,9.50
2022-12-23T00:09:58.168Z,9.37
2022-12-23T00:15:07.901Z,9.18
2022-12-23T00:19:59.500Z,9.01
2022-12-23T00:24:51.062Z,9.57
2022-12-23T00:29:42.584Z,9.62
2022-12-23T00:34:34.131Z,9.46
2022-12-23T00:39:44.365Z,8.66
2022-12-23T00:44:35.887Z,9.10
2022-12-23T00:49:42.410Z,9.64
2022-12-23T00:54:34.017Z,9.66
2022-12-23T00:59:27.010Z,9.31
2022-12-23T01:04:38.304Z,9.73
2022-12-23T01:09:30.213Z,9.73
2022-12-23T01:14:22.384Z,9.76
2022-12-23T01:19:14.033Z,9.38
2022-12-23T01:24:08.086Z,9.67
2022-12-23T01:29:00.056Z,9.64
2022-12-23T01:33:52.481Z,9.60
2022-12-23T01:38:44.558Z,9.06
2022-12-23T01:43:50.895Z,9.50
2022-12-23T01:48:51.137Z,9.31
2022-12-23T01:53:50.361Z,9.43
2022-12-23T01:58:55.111Z,9.55
2022-12-23T02:03:49.440Z,9.60
2022-12-23T02:08:59.762Z,9.65
2022-12-23T02:14:28.180Z,9.04
2022-12-23T02:19:47.888Z,9.64
2022-12-23T02:25:07.368Z,9.34
2022-12-23T02:30:26.981Z,9.90
2022-12-23T02:35:18.575Z,9.94
2022-12-23T02:40:10.998Z,9.93
2022-12-23T02:45:34.972Z,10.02
2022-12-23T02:50:31.770Z,9.90
2022-12-23T02:55:28.943Z,9.93
2022-12-23T03:00:21.440Z,10.14
2022-12-23T03:05:40.571Z,10.19
2022-12-23T03:11:10.397Z,10.28
2022-12-23T03:16:14.224Z,10.30
2022-12-23T03:21:15.831Z,10.23
2022-12-23T03:26:33.949Z,10.39
2022-12-23T03:31:29.598Z,10.38
2022-12-23T03:36:29.727Z,9.66
2022-12-23T03:41:46.203Z,10.44
2022-12-23T03:46:46.725Z,10.36
2022-12-23T03:51:51.060Z,10.16
2022-12-23T03:56:51.193Z,10.32
2022-12-23T04:01:51.797Z,10.37
2022-12-23T04:06:59.401Z,10.30
2022-12-23T04:11:51.768Z,9.49
2022-12-23T04:16:44.369Z,10.23
2022-12-23T04:21:35.925Z,10.27
2022-12-23T04:26:27.429Z,9.94
2022-12-23T04:31:21.047Z,9.74
2022-12-23T04:36:12.661Z,9.59
2022-12-23T04:41:04.360Z,9.08
2022-12-23T04:45:55.868Z,9.47
2022-12-23T04:50:47.354Z,9.63
2022-12-23T04:55:39.469Z,9.71
2022-12-23T05:00:37.129Z,9.78
2022-12-23T05:05:30.788Z,9.80
2022-12-23T05:10:22.269Z,9.60
2022-12-23T05:15:13.828Z,9.44
2022-12-23T05:20:05.825Z,9.68
2022-12-23T05:24:57.368Z,9.72
2022-12-23T05:29:48.911Z,9.75
2022-12-23T05:34:40.461Z,9.67
2022-12-23T05:39:32.031Z,9.44
2022-12-23T05:44:23.682Z,9.59
2022-12-23T05:49:15.375Z,8.55
2022-12-23T05:54:08.202Z,9.61
2022-12-23T05:58:59.707Z,9.71
2022-12-23T06:03:51.577Z,9.85
2022-12-23T06:08:43.235Z,9.96
2022-12-23T06:13:34.738Z,10.05
2022-12-23T06:18:26.298Z,9.36
2022-12-23T06:23:18.408Z,10.01
2022-12-23T06:28:10.049Z,10.05
2022-12-23T06:33:02.067Z,9.47
2022-12-23T06:37:53.621Z,9.71
2022-12-23T06:42:47.479Z,9.99
2022-12-23T06:47:39.144Z,9.90
2022-12-23T06:52:31.503Z,9.85
2022-12-23T06:57:23.023Z,9.48
2022-12-23T07:02:15.084Z,9.73
2022-12-23T07:07:06.853Z,9.45
2022-12-23T07:11:58.494Z,9.60
2022-12-23T07:16:51.428Z,9.45
2022-12-23T07:21:43.278Z,9.04
2022-12-23T07:26:34.787Z,9.36
2022-12-23T07:31:28.477Z,9.43
2022-12-23T07:36:20.129Z,9.45
2022-12-23T07:41:11.681Z,9.51
2022-12-23T07:46:08.287Z,9.49
2022-12-23T07:51:04.001Z,9.51
2022-12-23T07:55:56.765Z,9.02
2022-12-23T08:00:48.553Z,9.14
2022-12-23T08:05:40.119Z,9.41
2022-12-23T08:10:32.485Z,9.51
2022-12-23T08:15:24.781Z,9.73
2022-12-23T08:20:16.409Z,9.73
2022-12-23T08:25:08.359Z,9.55
2022-12-23T08:29:59.863Z,9.86
2022-12-23T08:34:51.450Z,9.93
2022-12-23T08:39:43.681Z,9.60
2022-12-23T08:44:35.361Z,9.87
2022-12-23T08:49:28.448Z,9.47
2022-12-23T08:54:20.551Z,9.43
2022-12-23T08:59:18.723Z,9.38
2022-12-23T09:04:11.000Z,9.89
2022-12-23T09:09:04.168Z,9.92
2022-12-23T09:13:57.861Z,9.83
2022-12-23T09:18:49.411Z,10.09
2022-12-23T09:23:41.660Z,9.58
2022-12-23T09:28:34.310Z,10.00
2022-12-23T09:33:26.007Z,9.86
2022-12-23T09:38:17.539Z,9.81
2022-12-23T09:43:36.144Z,10.14
2022-12-23T09:48:33.549Z,10.15
2022-12-23T09:53:35.872Z,10.00
2022-12-23T09:58:49.019Z,10.36
2022-12-23T10:03:54.514Z,10.60
2022-12-23T10:08:51.401Z,10.42
2022-12-23T10:13:53.429Z,10.36
2022-12-23T10:18:53.921Z,10.31
2022-12-23T10:23:51.216Z,10.08
2022-12-23T10:28:44.537Z,10.11
2022-12-23T10:33:50.569Z,10.22
2022-12-23T10:38:48.517Z,10.16
2022-12-23T10:44:03.242Z,10.02
2022-12-23T10:49:02.491Z,10.15
2022-12-23T10:54:13.039Z,10.15
2022-12-23T10:59:06.948Z,10.26
2022-12-23T11:04:26.029Z,10.27
2022-12-23T11:09:24.854Z,10.07
2022-12-23T11:14:40.670Z,10.32
2022-12-23T11:19:32.944Z,10.07
2022-12-23T11:24:28.591Z,10.49
2022-12-23T11:29:24.766Z,10.38
2022-12-23T11:34:38.782Z,10.07
2022-12-23T11:39:33.884Z,9.63
2022-12-23T11:44:32.305Z,9.81
2022-12-23T11:49:26.719Z,9.09
2022-12-23T11:54:20.539Z,9.64
2022-12-23T11:59:40.186Z,9.50
2022-12-23T12:04:35.606Z,9.89
2022-12-23T12:09:30.560Z,9.58
2022-12-23T12:14:41.695Z,9.65
2022-12-23T12:19:39.560Z,9.49
2022-12-23T12:24:44.083Z,9.56
2022-12-23T12:30:01.060Z,9.13
2022-12-23T12:35:06.418Z,9.39
2022-12-23T12:40:01.002Z,9.24
2022-12-23T12:45:02.284Z,8.70
2022-12-23T12:50:17.341Z,8.87
2022-12-23T12:55:17.499Z,8.88
2022-12-23T13:00:22.302Z,8.66
2022-12-23T13:05:33.947Z,8.88
2022-12-23T13:10:41.433Z,8.93
2022-12-23T13:15:44.846Z,8.84
2022-12-23T13:20:43.001Z,8.78
2022-12-23T13:26:00.528Z,8.34
2022-12-23T13:31:00.470Z,8.60
2022-12-23T13:35:59.780Z,9.15
2022-12-23T13:41:07.399Z,9.10
2022-12-23T13:46:06.028Z,8.88
2022-12-23T13:51:14.273Z,9.00
2022-12-23T13:56:22.379Z,8.67
2022-12-23T14:01:13.925Z,9.02
2022-12-23T14:06:23.423Z,9.15
2022-12-23T14:11:16.773Z,9.19
2022-12-23T14:16:17.921Z,9.01
2022-12-23T14:21:25.571Z,8.36
2022-12-23T14:26:46.162Z,9.11
2022-12-23T14:31:40.846Z,9.25
2022-12-23T14:36:33.732Z,8.72
2022-12-23T14:41:38.546Z,9.29
2022-12-23T14:46:36.207Z,9.40
2022-12-23T14:51:41.221Z,8.95
2022-12-23T14:56:39.468Z,9.62
2022-12-23T15:01:39.249Z,9.61
2022-12-23T15:06:33.579Z,9.60
2022-12-23T15:11:29.076Z,9.15
2022-12-23T15:16:35.460Z,9.64
2022-12-23T15:21:34.101Z,9.16
2022-12-23T15:26:30.297Z,9.67
2022-12-23T15:31:28.506Z,9.48
2022-12-23T15:36:42.992Z,9.54
2022-12-23T15:41:43.022Z,9.86
2022-12-23T15:46:40.167Z,9.96
2022-12-23T15:56:50.207Z,9.97
2022-12-23T16:01:42.041Z,10.35
2022-12-23T16:06:36.088Z,10.55
2022-12-23T16:11:57.984Z,10.73
2022-12-23T16:16:53.952Z,10.69
2022-12-23T16:21:46.378Z,10.57
2022-12-23T16:26:44.691Z,11.38
2022-12-23T16:31:37.428Z,11.20
2022-12-23T16:36:29.014Z,11.69
2022-12-23T16:41:21.544Z,11.76
2022-12-23T16:46:17.024Z,11.84
2022-12-23T16:51:14.706Z,11.83
2022-12-23T16:56:12.322Z,11.70
2022-12-23T17:01:04.919Z,11.84
2022-12-23T17:05:56.463Z,11.80
2022-12-23T17:10:48.119Z,11.93
2022-12-23T17:15:39.737Z,11.20
2022-12-23T17:20:32.081Z,11.70
2022-12-23T17:25:26.690Z,11.38
2022-12-23T17:30:21.770Z,11.56
2022-12-23T17:35:22.345Z,10.93
2022-12-23T17:40:14.972Z,11.60
2022-12-23T17:45:19.209Z,11.76
2022-12-23T17:50:11.227Z,11.26
2022-12-23T17:55:02.822Z,11.83
2022-12-23T17:59:55.012Z,11.56
2022-12-23T18:04:49.801Z,11.79
2022-12-23T18:09:41.376Z,11.66
2022-12-23T18:14:33.723Z,11.42
2022-12-23T18:19:25.640Z,11.76
2022-12-23T18:24:17.824Z,11.26
2022-12-23T18:29:09.513Z,11.47
2022-12-23T18:34:01.308Z,11.58
2022-12-23T18:38:53.629Z,10.98
2022-12-23T18:43:45.225Z,11.23
2022-12-23T18:48:39.757Z,11.21
2022-12-23T18:53:33.735Z,11.27
2022-12-23T18:58:25.499Z,11.44
2022-12-23T19:03:22.437Z,11.56
2022-12-23T19:08:14.119Z,10.97
2022-12-23T19:13:05.625Z,11.57
2022-12-23T19:17:57.361Z,11.36
2022-12-23T19:22:49.131Z,10.51
2022-12-23T19:27:42.138Z,11.39
2022-12-23T19:32:33.776Z,11.59
2022-12-23T19:37:25.391Z,11.15
2022-12-23T19:42:17.252Z,11.65
2022-12-23T19:47:08.868Z,11.60
2022-12-23T19:52:01.557Z,11.24
2022-12-23T19:56:53.263Z,11.13
2022-12-23T20:01:45.649Z,11.63
2022-12-23T20:06:38.363Z,11.62
2022-12-23T20:11:34.325Z,11.64
2022-12-23T20:16:26.797Z,11.67
2022-12-23T20:21:18.856Z,11.62
2022-12-23T20:26:12.389Z,10.96
2022-12-23T20:31:19.292Z,11.60
2022-12-23T20:36:13.511Z,11.58
2022-12-23T20:41:10.823Z,11.59
2022-12-23T20:46:06.904Z,11.31
2022-12-23T20:51:07.052Z,11.18
2022-12-23T20:56:09.576Z,11.25
2022-12-23T21:01:12.563Z,11.13
2022-12-23T21:06:05.353Z,11.26
2022-12-23T21:10:58.987Z,11.23
2022-12-23T21:15:50.837Z,11.38
2022-12-23T21:20:42.381Z,11.31
2022-12-23T21:25:34.146Z,11.71
2022-12-23T21:30:25.682Z,9.58
2022-12-23T21:35:17.327Z,11.73
2022-12-23T21:40:09.737Z,11.41
2022-12-23T21:45:01.464Z,11.79
2022-12-23T21:49:52.984Z,11.61
2022-12-23T21:54:44.578Z,11.36
2022-12-23T21:59:36.162Z,11.81
2022-12-23T22:04:27.792Z,11.44
2022-12-23T22:09:19.683Z,11.75
2022-12-23T22:14:14.011Z,11.76
2022-12-23T22:19:08.771Z,11.75
2022-12-23T22:24:01.387Z,11.48
2022-12-23T22:28:57.696Z,11.68
2022-12-23T22:33:49.297Z,11.71
2022-12-23T22:38:41.982Z,11.51
2022-12-23T22:43:33.723Z,11.65
2022-12-23T22:48:28.777Z,11.17
2022-12-23T22:53:24.847Z,10.86
2022-12-23T22:58:19.488Z,11.61
2022-12-23T23:03:11.038Z,11.23
2022-12-23T23:08:02.608Z,11.46
2022-12-23T23:12:54.120Z,11.31
2022-12-23T23:17:46.491Z,11.48
2022-12-23T23:22:38.129Z,11.38
2022-12-23T23:27:54.823Z,11.38
2022-12-23T23:32:46.435Z,11.36
2022-12-23T23:37:42.881Z,9.89
2022-12-23T23:42:34.434Z,10.99
2022-12-23T23:47:26.070Z,10.97
2022-12-23T23:52:17.814Z,11.07
2022-12-23T23:57:10.258Z,10.97
